Time;durP1;ratioP1;P1;durP2;ratioP2;P2;SDS_P1;SDS_P2;PMS_P1;PMS_P2;Temp;Humidity;BMP_temperature;BMP_pressure;BME280_temperature;BME280_humidity;BME280_pressure;Samples;Min_cycle;Max_cycle;Signal;HPM_P1;HPM_P2
2023/10/04 00:01:08;;;;;;;0.10;0.10;;;13.40;99.90;;;;;;5084561;28;20020;-78
2023/10/04 00:03:36;;;;;;;0.10;0.10;;;13.40;99.90;;;;;;5084878;28;20648;-77
2023/10/04 00:06:02;;;;;;;0.57;0.57;;;13.40;99.90;;;;;;5068045;28;20028;-75
2023/10/04 00:08:29;;;;;;;0.10;0.10;;;13.40;99.90;;;;;;5082245;28;20028;-78
2023/10/04 00:10:56;;;;;;;0.10;0.10;;;13.40;99.90;;;;;;5087309;28;20032;-81
2023/10/04 00:13:22;;;;;;;0.10;0.10;;;13.40;99.90;;;;;;5072781;28;20526;-77
2023/10/04 00:15:49;;;;;;;0.10;0.10;;;13.40;99.90;;;;;;5098622;28;20237;-77
2023/10/04 00:18:15;;;;;;;0.35;0.35;;;13.40;99.90;;;;;;5091419;28;20024;-77
2023/10/04 00:20:43;;;;;;;0.10;0.10;;;13.40;99.90;;;;;;5093912;28;20232;-77
2023/10/04 00:23:14;;;;;;;0.13;0.13;;;13.40;99.90;;;;;;5091672;28;20031;-77
2023/10/04 00:25:40;;;;;;;0.10;0.10;;;13.40;99.90;;;;;;5086691;28;20023;-78
2023/10/04 00:28:07;;;;;;;0.10;0.10;;;13.40;99.90;;;;;;5083741;28;20073;-85
2023/10/04 00:30:33;;;;;;;0.10;0.10;;;13.40;99.90;;;;;;5083215;28;20037;-77
2023/10/04 00:33:02;;;;;;;0.10;0.10;;;13.40;99.90;;;;;;5085543;28;20096;-80
2023/10/04 00:35:29;;;;;;;0.10;0.10;;;13.30;99.90;;;;;;5087719;28;20013;-85
2023/10/04 00:37:59;;;;;;;0.10;0.10;;;13.30;99.90;;;;;;5082749;28;20035;-82
2023/10/04 00:40:31;;;;;;;0.15;0.15;;;13.30;99.90;;;;;;5082927;28;20051;-86
2023/10/04 00:43:05;;;;;;;0.68;0.68;;;13.20;99.90;;;;;;5082986;28;20336;-78
2023/10/04 00:45:34;;;;;;;0.10;0.10;;;13.20;99.90;;;;;;5083354;28;20028;-80
2023/10/04 00:48:04;;;;;;;0.10;0.10;;;13.10;99.90;;;;;;5087849;28;20084;-76
2023/10/04 00:50:32;;;;;;;6.13;5.68;;;13.20;99.90;;;;;;5089103;28;20103;-76
2023/10/04 00:53:26;;;;;;;7.22;6.20;;;13.10;99.90;;;;;;5092888;28;20607;-76
2023/10/04 00:55:57;;;;;;;0.20;0.20;;;13.10;99.90;;;;;;5077418;28;20030;-77
2023/10/04 00:58:23;;;;;;;0.22;0.22;;;13.00;99.90;;;;;;5084034;28;20281;-81
2023/10/04 01:00:50;;;;;;;0.10;0.10;;;13.00;99.90;;;;;;5084904;28;20091;-77
2023/10/04 01:03:24;;;;;;;0.10;0.10;;;13.00;99.90;;;;;;5090591;28;20111;-76
2023/10/04 01:05:52;;;;;;;0.20;0.20;;;12.90;99.90;;;;;;5094215;28;20117;-76
2023/10/04 01:08:24;;;;;;;0.10;0.10;;;12.90;99.90;;;;;;5076941;28;20016;-76
2023/10/04 01:10:56;;;;;;;6.82;5.28;;;12.80;99.90;;;;;;5097417;28;20023;-76
2023/10/04 01:13:26;;;;;;;0.82;0.82;;;12.80;99.90;;;;;;5078926;28;20107;-76
2023/10/04 01:15:59;;;;;;;5.38;4.03;;;12.80;99.90;;;;;;5087526;28;20708;-77
2023/10/04 01:18:28;;;;;;;0.10;0.10;;;12.80;99.90;;;;;;5088033;28;20031;-76
2023/10/04 01:20:55;;;;;;;0.10;0.10;;;12.80;99.90;;;;;;5069901;28;20574;-76
2023/10/04 01:23:21;;;;;;;0.10;0.10;;;12.80;99.90;;;;;;5086740;28;20290;-76
2023/10/04 01:25:48;;;;;;;0.10;0.10;;;12.70;99.90;;;;;;5085464;28;20123;-76
2023/10/04 01:28:27;;;;;;;0.10;0.10;;;12.90;99.90;;;;;;5087410;28;20028;-77
2023/10/04 01:30:55;;;;;;;0.10;0.10;;;12.60;99.90;;;;;;5067027;28;20233;-76
2023/10/04 01:33:23;;;;;;;0.10;0.10;;;12.60;99.90;;;;;;5088831;28;20039;-76
2023/10/04 01:35:51;;;;;;;0.10;0.10;;;12.60;99.90;;;;;;5092850;28;20040;-76
2023/10/04 01:38:17;;;;;;;0.10;0.10;;;12.60;99.90;;;;;;5095822;28;20409;-76
2023/10/04 01:40:48;;;;;;;0.17;0.17;;;12.70;99.90;;;;;;5095636;28;20316;-76
2023/10/04 01:43:15;;;;;;;0.50;0.50;;;12.60;99.90;;;;;;5091593;28;20185;-76
2023/10/04 01:45:57;;;;;;;0.10;0.10;;;12.60;99.90;;;;;;5076797;28;20028;-75
2023/10/04 01:48:30;;;;;;;0.17;0.17;;;12.50;99.90;;;;;;5095126;28;20355;-75
2023/10/04 01:50:59;;;;;;;0.10;0.10;;;13.40;99.90;;;;;;5078281;28;20020;-76
2023/10/04 01:53:26;;;;;;;0.10;0.10;;;12.60;99.90;;;;;;5081891;28;20040;-76
2023/10/04 01:55:54;;;;;;;0.10;0.10;;;12.60;99.90;;;;;;5100485;28;20016;-78
2023/10/04 01:58:29;;;;;;;0.20;0.20;;;12.50;99.90;;;;;;5099193;28;20084;-76
2023/10/04 02:01:03;;;;;;;0.10;0.10;;;12.60;99.90;;;;;;5091081;28;20228;-79
2023/10/04 02:03:30;;;;;;;0.10;0.10;;;12.60;99.90;;;;;;5097635;28;20073;-76
2023/10/04 02:05:59;;;;;;;6.65;6.13;;;12.50;99.90;;;;;;5094538;28;20036;-76
2023/10/04 02:08:26;;;;;;;0.10;0.10;;;12.50;99.90;;;;;;5094654;28;20028;-76
2023/10/04 02:10:54;;;;;;;0.10;0.10;;;12.50;99.90;;;;;;5095085;28;20021;-76
2023/10/04 02:13:20;;;;;;;0.10;0.10;;;12.50;99.90;;;;;;5095516;28;20028;-75
2023/10/04 02:15:51;;;;;;;0.10;0.10;;;12.50;99.90;;;;;;5091355;28;20054;-76
2023/10/04 02:18:21;;;;;;;11.57;6.95;;;12.50;99.90;;;;;;5095345;28;20012;-78
2023/10/04 02:20:49;;;;;;;0.10;0.10;;;12.50;99.90;;;;;;5097566;28;20050;-78
2023/10/04 02:23:19;;;;;;;0.17;0.17;;;12.50;99.90;;;;;;5092706;28;20032;-76
2023/10/04 02:25:48;;;;;;;0.10;0.10;;;12.50;99.90;;;;;;5074769;28;20046;-76
2023/10/04 02:28:22;;;;;;;0.10;0.10;;;12.20;99.90;;;;;;5077326;28;20047;-76
2023/10/04 02:30:49;;;;;;;0.10;0.10;;;12.50;99.90;;;;;;5094605;28;20074;-76
2023/10/04 02:33:16;;;;;;;0.10;0.10;;;12.50;99.90;;;;;;5090366;28;20104;-76
2023/10/04 02:36:04;;;;;;;0.47;0.47;;;12.50;99.90;;;;;;5097305;28;20050;-76
2023/10/04 02:38:33;;;;;;;0.10;0.10;;;12.50;99.90;;;;;;5095906;28;20096;-76
2023/10/04 02:41:00;;;;;;;0.10;0.10;;;12.50;99.90;;;;;;5086957;28;20024;-76
2023/10/04 02:43:26;;;;;;;2.67;2.55;;;12.30;99.90;;;;;;5085757;28;20486;-76
2023/10/04 02:45:53;;;;;;;0.10;0.10;;;12.50;99.90;;;;;;5072288;28;20327;-76
2023/10/04 02:48:20;;;;;;;0.10;0.10;;;12.50;99.90;;;;;;5083851;28;20537;-76
2023/10/04 02:50:49;;;;;;;0.10;0.10;;;12.40;99.90;;;;;;5093602;28;20020;-76
2023/10/04 02:53:17;;;;;;;0.10;0.10;;;12.40;99.90;;;;;;5093871;28;20114;-76
2023/10/04 02:55:44;;;;;;;0.45;0.45;;;12.40;99.90;;;;;;5076515;28;20028;-76
2023/10/04 02:58:12;;;;;;;0.10;0.10;;;12.40;99.90;;;;;;5095430;28;20359;-76
2023/10/04 03:00:44;;;;;;;0.10;0.10;;;12.40;99.90;;;;;;5095931;28;20023;-76
2023/10/04 03:03:11;;;;;;;0.10;0.10;;;12.40;99.90;;;;;;5087381;28;20039;-76
2023/10/04 03:05:40;;;;;;;0.10;0.10;;;12.40;99.90;;;;;;5093493;28;20031;-75
2023/10/04 03:08:08;;;;;;;1.20;1.20;;;12.40;99.90;;;;;;5094946;28;20055;-76
2023/10/04 03:10:38;;;;;;;0.32;0.32;;;12.30;99.90;;;;;;5097032;28;20046;-76
2023/10/04 03:13:12;;;;;;;0.77;0.77;;;12.30;99.90;;;;;;5097229;28;20164;-75
2023/10/04 03:15:39;;;;;;;;;;;12.20;99.90;;;;;;5098389;28;20410;-76
2023/10/04 03:18:13;;;;;;;0.10;0.10;;;12.20;99.90;;;;;;5094784;28;19912;-76
2023/10/04 03:20:48;;;;;;;0.20;0.20;;;12.20;99.90;;;;;;5094773;28;20063;-76
2023/10/04 03:23:18;;;;;;;0.10;0.10;;;12.20;99.90;;;;;;5094468;28;20050;-76
2023/10/04 03:25:45;;;;;;;0.10;0.10;;;12.20;99.90;;;;;;5076130;28;20069;-76
2023/10/04 03:28:15;;;;;;;0.10;0.10;;;12.10;99.90;;;;;;5077957;28;20060;-76
2023/10/04 03:30:45;;;;;;;1.00;1.00;;;12.10;99.90;;;;;;5097483;28;20051;-76
2023/10/04 03:33:11;;;;;;;0.20;0.20;;;12.10;99.90;;;;;;5052921;28;20340;-76
2023/10/04 03:35:39;;;;;;;0.10;0.10;;;12.50;99.90;;;;;;5086548;28;20036;-76
2023/10/04 03:38:11;;;;;;;0.10;0.10;;;12.00;99.90;;;;;;5088439;28;20020;-76
2023/10/04 03:40:38;;;;;;;1.70;1.60;;;12.00;99.90;;;;;;5094223;28;20024;-76
2023/10/04 03:43:08;;;;;;;0.10;0.10;;;12.00;99.90;;;;;;5095473;28;20567;-76
2023/10/04 03:45:39;;;;;;;2.28;2.17;;;12.00;99.90;;;;;;5096019;28;20548;-76
2023/10/04 03:48:10;;;;;;;0.10;0.10;;;12.00;99.90;;;;;;5087578;28;20027;-76
2023/10/04 03:50:38;;;;;;;0.10;0.10;;;12.00;99.90;;;;;;5100034;28;20339;-75
2023/10/04 03:53:04;;;;;;;0.17;0.17;;;12.00;99.90;;;;;;5099456;28;20020;-77
2023/10/04 03:55:39;;;;;;;0.10;0.10;;;11.90;99.90;;;;;;5093191;28;20332;-76
2023/10/04 03:58:20;;;;;;;0.10;0.10;;;11.90;99.90;;;;;;5078929;28;20051;-76
2023/10/04 04:00:47;;;;;;;0.10;0.10;;;11.90;99.90;;;;;;5099782;28;20027;-76
2023/10/04 04:03:12;;;;;;;0.10;0.10;;;11.90;99.90;;;;;;5098776;28;20034;-77
2023/10/04 04:05:42;;;;;;;0.57;0.57;;;11.90;99.90;;;;;;5095082;28;20025;-75
2023/10/04 04:08:08;;;;;;;0.10;0.10;;;11.80;99.90;;;;;;5067604;28;20031;-75
2023/10/04 04:10:36;;;;;;;2.60;2.50;;;11.70;99.90;;;;;;5089358;28;20109;-76
2023/10/04 04:13:05;;;;;;;0.05;0.05;;;11.80;99.90;;;;;;5088278;28;20089;-76
2023/10/04 04:15:51;;;;;;;0.10;0.10;;;11.40;99.90;;;;;;5091755;28;20028;-75
2023/10/04 04:18:20;;;;;;;0.10;0.10;;;11.70;99.90;;;;;;5098376;28;20032;-75
2023/10/04 04:20:53;;;;;;;0.10;0.10;;;11.70;99.90;;;;;;5097282;28;20066;-74
2023/10/04 04:23:19;;;;;;;0.10;0.10;;;11.40;99.90;;;;;;5095711;28;20016;-76
2023/10/04 04:25:49;;;;;;;0.10;0.10;;;11.70;99.90;;;;;;5089103;28;20215;-76
2023/10/04 04:28:18;;;;;;;0.38;0.38;;;11.70;99.90;;;;;;5096612;28;20020;-76
2023/10/04 04:30:53;;;;;;;0.08;0.08;;;11.70;99.90;;;;;;5096462;28;20059;-76
2023/10/04 04:33:28;;;;;;;0.10;0.10;;;11.70;99.90;;;;;;5090621;28;20214;-76
2023/10/04 04:36:17;;;;;;;0.10;0.10;;;11.60;99.90;;;;;;5080930;28;20042;-77
2023/10/04 04:38:47;;;;;;;0.10;0.10;;;11.60;99.90;;;;;;5099618;28;20137;-76
2023/10/04 04:41:14;;;;;;;0.10;0.10;;;11.50;99.90;;;;;;5091175;28;20471;-76
2023/10/04 04:43:43;;;;;;;0.10;0.10;;;12.10;99.90;;;;;;5100020;28;20042;-76
2023/10/04 04:46:18;;;;;;;0.10;0.10;;;11.40;99.90;;;;;;5074069;28;20020;-75
2023/10/04 04:48:46;;;;;;;0.10;0.10;;;11.40;99.90;;;;;;5099282;28;20028;-76
2023/10/04 04:51:14;;;;;;;0.10;0.10;;;11.40;99.90;;;;;;5098275;28;20016;-75
2023/10/04 04:53:43;;;;;;;0.30;0.30;;;12.00;99.90;;;;;;5077713;28;20024;-75
2023/10/04 04:56:18;;;;;;;0.10;0.10;;;11.40;99.90;;;;;;5071951;28;20212;-76
2023/10/04 04:58:51;;;;;;;0.10;0.10;;;11.50;99.90;;;;;;5095754;28;20020;-76
2023/10/04 05:01:18;;;;;;;0.17;0.17;;;11.60;99.90;;;;;;5089842;28;20020;-75
2023/10/04 05:03:46;;;;;;;0.10;0.10;;;11.60;99.90;;;;;;5098934;28;20672;-76
2023/10/04 05:06:25;;;;;;;2.22;2.08;;;11.60;99.90;;;;;;5102509;28;20380;-75
2023/10/04 05:08:54;;;;;;;3.47;3.28;;;11.60;99.90;;;;;;5094346;28;20033;-76
2023/10/04 05:11:25;;;;;;;0.10;0.10;;;11.60;99.90;;;;;;5073988;28;20031;-76
2023/10/04 05:13:58;;;;;;;0.75;0.75;;;11.60;99.90;;;;;;5090355;28;20039;-76
2023/10/04 05:16:27;;;;;;;0.10;0.10;;;11.60;99.90;;;;;;5091803;28;20050;-76
2023/10/04 05:18:53;;;;;;;0.10;0.10;;;9.80;99.90;;;;;;5093441;28;20028;-76
2023/10/04 05:21:22;;;;;;;0.10;0.10;;;11.50;99.90;;;;;;5097576;28;20032;-76
2023/10/04 05:23:48;;;;;;;0.10;0.10;;;11.50;99.90;;;;;;5081743;28;20040;-76
2023/10/04 05:26:15;;;;;;;0.10;0.10;;;11.50;99.90;;;;;;5090808;28;20032;-76
2023/10/04 05:28:40;;;;;;;6.90;6.60;;;11.50;99.90;;;;;;5074315;28;20031;-76
2023/10/04 05:31:08;;;;;;;0.30;0.30;;;11.50;99.90;;;;;;5090868;28;20110;-76
2023/10/04 05:33:35;;;;;;;0.10;0.10;;;11.40;99.90;;;;;;5093908;28;20119;-77
2023/10/04 05:36:06;;;;;;;0.10;0.10;;;11.40;99.90;;;;;;5078035;28;20055;-76
2023/10/04 05:38:54;;;;;;;0.40;0.40;;;11.40;99.90;;;;;;5091746;28;20020;-76
2023/10/04 05:41:22;;;;;;;0.10;0.10;;;11.40;99.90;;;;;;5089980;28;20043;-76
2023/10/04 05:43:50;;;;;;;0.20;0.20;;;12.30;99.90;;;;;;5100749;28;20047;-75
2023/10/04 05:46:25;;;;;;;0.30;0.30;;;11.50;99.90;;;;;;5090875;28;20093;-76
2023/10/04 05:48:53;;;;;;;1.15;1.05;;;11.60;99.90;;;;;;5084509;28;20024;-76
2023/10/04 05:51:24;;;;;;;0.10;0.10;;;11.70;99.90;;;;;;5073824;28;20035;-77
2023/10/04 05:53:51;;;;;;;0.38;0.38;;;11.70;99.90;;;;;;5094922;28;20028;-75
2023/10/04 05:56:34;;;;;;;0.10;0.10;;;11.80;99.90;;;;;;5089815;28;20031;-76
2023/10/04 05:59:10;;;;;;;0.10;0.10;;;11.80;99.90;;;;;;5098987;28;20381;-76
2023/10/04 06:01:39;;;;;;;0.13;0.13;;;11.90;99.90;;;;;;5088729;28;20016;-76
2023/10/04 06:04:05;;;;;;;0.10;0.10;;;12.00;99.90;;;;;;5086591;28;20112;-76
2023/10/04 06:06:32;;;;;;;0.10;0.10;;;12.20;99.90;;;;;;5087965;28;20541;-76
2023/10/04 06:08:59;;;;;;;0.10;0.10;;;12.20;99.90;;;;;;5069657;28;20111;-76
2023/10/04 06:11:25;;;;;;;0.10;0.10;;;12.50;99.90;;;;;;5085857;28;20028;-76
2023/10/04 06:13:51;;;;;;;0.20;0.20;;;;;;;;;;5087703;28;20372;-76
2023/10/04 06:16:20;;;;;;;0.10;0.10;;;11.90;99.90;;;;;;5084657;28;20090;-76
2023/10/04 06:18:48;;;;;;;1.23;1.17;;;12.50;99.90;;;;;;5081186;28;20020;-76
2023/10/04 06:21:16;;;;;;;0.10;0.10;;;14.60;99.90;;;;;;5082070;28;20024;-77
2023/10/04 06:23:43;;;;;;;0.20;0.20;;;12.70;99.90;;;;;;5063458;28;20017;-80
2023/10/04 06:26:09;;;;;;;0.10;0.10;;;12.70;99.90;;;;;;5080764;28;20156;-78
2023/10/04 06:28:36;;;;;;;0.10;0.10;;;12.80;99.90;;;;;;5083034;28;20553;-76
2023/10/04 06:31:02;;;;;;;0.20;0.20;;;13.00;99.90;;;;;;5080750;28;20050;-79
2023/10/04 06:33:29;;;;;;;0.20;0.20;;;13.10;99.90;;;;;;5079327;28;20032;-78
2023/10/04 06:35:55;;;;;;;2.60;2.47;;;13.10;99.90;;;;;;5078695;28;20016;-83
2023/10/04 06:38:21;;;;;;;0.10;0.10;;;13.30;99.90;;;;;;5078073;28;20268;-80
2023/10/04 06:40:47;;;;;;;0.10;0.10;;;13.40;99.90;;;;;;5078817;28;20506;-82
2023/10/04 06:43:15;;;;;;;0.10;0.10;;;13.40;99.90;;;;;;5078738;28;20016;-79
2023/10/04 06:45:41;;;;;;;0.10;0.10;;;13.40;99.90;;;;;;5078760;28;20200;-77
2023/10/04 06:48:07;;;;;;;1.48;1.45;;;13.60;99.90;;;;;;5077525;28;20108;-82
2023/10/04 06:50:38;;;;;;;0.10;0.10;;;13.70;99.90;;;;;;5078032;28;20099;-76
2023/10/04 06:53:05;;;;;;;0.20;0.20;;;13.80;99.90;;;;;;5059135;28;20423;-82
2023/10/04 06:55:32;;;;;;;1.20;1.20;;;13.90;99.90;;;;;;5077843;28;20279;-76
2023/10/04 06:57:58;;;;;;;0.10;0.10;;;13.90;99.90;;;;;;5077285;28;20327;-78
2023/10/04 07:00:30;;;;;;;1.85;1.75;;;14.10;99.90;;;;;;5060511;28;20024;-76
2023/10/04 07:02:59;;;;;;;0.25;0.25;;;14.30;99.90;;;;;;5063291;28;20117;-81
2023/10/04 07:05:29;;;;;;;0.10;0.10;;;14.40;99.90;;;;;;5081217;28;20059;-77
2023/10/04 07:07:59;;;;;;;0.30;0.30;;;14.50;99.90;;;;;;5078166;28;20050;-79
2023/10/04 07:10:27;;;;;;;0.43;0.43;;;13.70;99.90;;;;;;5078473;28;20717;-82
2023/10/04 07:12:54;;;;;;;0.10;0.10;;;14.70;99.90;;;;;;5077090;28;20059;-73
2023/10/04 07:15:24;;;;;;;0.17;0.17;;;14.70;99.90;;;;;;5059104;28;20543;-76
2023/10/04 07:17:51;;;;;;;0.15;0.15;;;14.70;99.90;;;;;;5078390;28;20036;-75
2023/10/04 07:20:18;;;;;;;0.60;0.60;;;14.70;99.90;;;;;;5078318;28;20020;-75
2023/10/04 07:23:03;;;;;;;0.20;0.20;;;15.00;99.90;;;;;;5077988;28;20021;-78
2023/10/04 07:25:31;;;;;;;0.10;0.10;;;15.00;99.90;;;;;;5082615;28;20027;-76
2023/10/04 07:28:02;;;;;;;0.10;0.10;;;15.10;99.90;;;;;;5083121;28;20021;-75
2023/10/04 07:30:29;;;;;;;0.85;0.85;;;15.30;99.90;;;;;;5082839;28;20040;-75
2023/10/04 07:32:57;;;;;;;0.10;0.10;;;15.30;99.90;;;;;;5063952;28;20048;-74
2023/10/04 07:35:25;;;;;;;0.10;0.10;;;15.40;99.90;;;;;;5082642;28;20358;-75
2023/10/04 07:37:51;;;;;;;0.15;0.15;;;15.30;99.90;;;;;;5082433;28;20217;-74
2023/10/04 07:40:20;;;;;;;0.60;0.60;;;15.50;99.90;;;;;;5085309;28;20505;-75
2023/10/04 07:42:46;;;;;;;0.10;0.10;;;15.50;99.90;;;;;;5081930;28;20415;-75
2023/10/04 07:45:13;;;;;;;0.40;0.40;;;15.70;99.90;;;;;;5082778;28;20174;-75
2023/10/04 07:47:43;;;;;;;0.32;0.32;;;15.90;99.90;;;;;;5081225;28;20065;-78
2023/10/04 07:50:11;;;;;;;1.50;1.40;;;18.70;99.90;;;;;;5081260;28;20043;-74
2023/10/04 07:52:37;;;;;;;0.10;0.10;;;16.20;99.90;;;;;;5081910;28;20028;-74
2023/10/04 07:55:05;;;;;;;0.10;0.10;;;16.40;99.90;;;;;;5082386;28;20017;-89
2023/10/04 07:57:41;;;;;;;0.93;0.93;;;16.60;99.90;;;;;;5084157;28;20024;-75
2023/10/04 08:00:11;;;;;;;10.60;9.95;;;16.60;99.90;;;;;;5083446;28;20023;-84
2023/10/04 08:02:37;;;;;;;0.22;0.22;;;16.60;99.90;;;;;;5084160;28;20220;-74
2023/10/04 08:05:06;;;;;;;0.30;0.30;;;16.60;99.90;;;;;;5086803;28;20100;-78
2023/10/04 08:07:36;;;;;;;0.10;0.10;;;16.70;99.90;;;;;;5062354;28;20293;-74
2023/10/04 08:10:03;;;;;;;0.17;0.17;;;16.90;99.90;;;;;;5082184;28;20222;-78
2023/10/04 08:12:30;;;;;;;0.20;0.20;;;17.00;99.90;;;;;;5082236;28;20028;-81
2023/10/04 08:14:58;;;;;;;0.25;0.25;;;16.90;99.90;;;;;;5064031;28;20024;-84
2023/10/04 08:17:24;;;;;;;0.20;0.20;;;16.90;99.90;;;;;;5081532;28;20052;-84
2023/10/04 08:19:49;;;;;;;0.45;0.45;;;17.00;99.90;;;;;;5080912;28;20052;-74
2023/10/04 08:22:15;;;;;;;0.10;0.10;;;17.20;99.90;;;;;;5062077;28;20682;-75
2023/10/04 08:24:44;;;;;;;0.20;0.20;;;15.20;99.90;;;;;;5080940;28;20364;-74
2023/10/04 08:27:09;;;;;;;2.25;2.15;;;17.40;99.90;;;;;;5080717;28;20058;-74
2023/10/04 08:29:37;;;;;;;0.10;0.10;;;17.60;99.90;;;;;;5080417;28;20064;-79
2023/10/04 08:32:03;;;;;;;0.85;0.85;;;17.70;99.90;;;;;;5081044;28;20028;-81
2023/10/04 08:34:29;;;;;;;1.92;1.75;;;17.90;99.90;;;;;;5080643;28;20023;-74
2023/10/04 08:36:56;;;;;;;1.65;1.55;;;18.00;99.90;;;;;;5080437;28;20101;-79
2023/10/04 08:39:22;;;;;;;0.90;0.90;;;18.30;99.90;;;;;;5081291;28;20020;-75
2023/10/04 08:41:48;;;;;;;3.38;3.22;;;18.50;99.90;;;;;;5080362;28;20035;-74
2023/10/04 08:44:15;;;;;;;0.10;0.10;;;18.70;99.90;;;;;;5081281;28;20111;-74
2023/10/04 08:46:46;;;;;;;0.10;0.10;;;18.70;99.90;;;;;;5080846;28;20411;-85
2023/10/04 08:49:15;;;;;;;0.45;0.45;;;18.70;99.90;;;;;;5080088;28;20034;-77
2023/10/04 08:51:44;;;;;;;0.10;0.10;;;18.80;99.90;;;;;;5061296;28;20039;-77
2023/10/04 08:54:12;;;;;;;0.95;0.88;;;17.20;99.90;;;;;;5061679;28;20024;-77
2023/10/04 08:57:14;;;;;;;0.10;0.10;;;19.00;99.90;;;;;;5079651;28;20012;-79
2023/10/04 08:59:42;;;;;;;0.25;0.25;;;19.20;99.90;;;;;;5079261;28;20020;-77
2023/10/04 09:02:13;;;;;;;0.10;0.10;;;19.20;99.90;;;;;;5061259;28;20031;-76
2023/10/04 09:04:40;;;;;;;0.20;0.20;;;19.70;99.90;;;;;;5081038;28;20277;-91
2023/10/04 09:07:10;;;;;;;0.73;0.73;;;19.80;99.90;;;;;;5081861;28;20178;-83
2023/10/04 09:09:40;;;;;;;0.20;0.20;;;19.90;99.90;;;;;;5080926;28;20059;-78
2023/10/04 09:12:09;;;;;;;0.10;0.10;;;20.20;99.90;;;;;;5080712;28;20316;-81
2023/10/04 09:14:37;;;;;;;0.30;0.30;;;20.30;99.90;;;;;;5080934;28;20281;-80
2023/10/04 09:17:06;;;;;;;0.30;0.30;;;19.50;99.90;;;;;;5080228;28;20024;-77
2023/10/04 09:19:33;;;;;;;0.40;0.40;;;20.20;99.90;;;;;;5080499;28;20297;-81
2023/10/04 09:22:06;;;;;;;0.85;0.77;;;20.40;99.90;;;;;;5082016;28;20016;-75
2023/10/04 09:24:52;;;;;;;1.83;1.73;;;20.20;99.90;;;;;;5080630;28;20107;-77
2023/10/04 09:27:18;;;;;;;0.30;0.30;;;20.30;99.90;;;;;;5084707;28;20031;-83
2023/10/04 09:29:45;;;;;;;3.92;2.92;;;20.70;99.90;;;;;;5087095;28;20040;-75
2023/10/04 09:32:10;;;;;;;9.18;3.60;;;20.60;99.90;;;;;;5081790;28;20024;-83
2023/10/04 09:34:36;;;;;;;1.00;1.00;;;20.50;99.90;;;;;;5062007;28;20036;-76
2023/10/04 09:37:23;;;;;;;0.10;0.10;;;20.80;99.90;;;;;;5079537;28;20020;-76
2023/10/04 09:40:04;;;;;;;1.20;1.17;;;20.70;99.90;;;;;;5080081;28;20054;-78
2023/10/04 09:42:30;;;;;;;1.35;0.82;;;21.00;99.90;;;;;;5079945;28;20050;-73
2023/10/04 09:45:07;;;;;;;0.45;0.45;;;21.00;99.90;;;;;;5079490;28;20160;-79
2023/10/04 09:47:39;;;;;;;3.03;0.80;;;21.00;99.90;;;;;;5079379;28;20016;-83
2023/10/04 09:50:20;;;;;;;0.43;0.43;;;21.00;99.90;;;;;;5079283;28;20517;-77
2023/10/04 09:52:46;;;;;;;0.20;0.20;;;21.10;99.90;;;;;;5061574;28;20040;-82
2023/10/04 09:55:13;;;;;;;5.05;1.58;;;21.20;99.90;;;;;;5080364;28;20482;-79
2023/10/04 09:57:43;;;;;;;0.90;0.90;;;21.30;99.90;;;;;;5061749;28;20024;-76
2023/10/04 10:00:22;;;;;;;2.17;1.98;;;21.40;99.90;;;;;;5080080;28;20478;-78
2023/10/04 10:02:51;;;;;;;3.78;3.60;;;21.50;99.90;;;;;;5079728;28;20020;-76
2023/10/04 10:05:29;;;;;;;2.38;0.75;;;21.60;99.90;;;;;;5079872;28;20470;-76
2023/10/04 10:08:04;;;;;;;0.10;0.10;;;22.20;99.90;;;;;;5079722;28;20197;-78
2023/10/04 10:10:43;;;;;;;0.10;0.10;;;21.60;99.90;;;;;;5079479;28;20048;-75
2023/10/04 10:13:09;;;;;;;0.10;0.10;;;21.80;99.90;;;;;;5079013;28;20040;-79
2023/10/04 10:15:38;;;;;;;0.10;0.10;;;22.10;99.90;;;;;;5079761;28;20227;-78
2023/10/04 10:18:04;;;;;;;1.50;1.38;;;22.20;99.90;;;;;;5079772;28;20035;-78
2023/10/04 10:20:31;;;;;;;0.10;0.10;;;22.30;99.90;;;;;;5060878;28;20016;-77
2023/10/04 10:22:59;;;;;;;0.20;0.20;;;22.20;99.90;;;;;;5078993;28;20028;-80
2023/10/04 10:25:37;;;;;;;0.40;0.40;;;22.20;99.90;;;;;;5079359;28;20027;-82
2023/10/04 10:28:04;;;;;;;0.47;0.47;;;22.20;99.90;;;;;;5079625;28;20020;-77
2023/10/04 10:30:34;;;;;;;0.43;0.43;;;22.20;99.90;;;;;;5079099;28;20248;-81
2023/10/04 10:33:02;;;;;;;1.48;1.38;;;19.60;99.90;;;;;;5078933;28;20028;-88
2023/10/04 10:35:53;;;;;;;0.25;0.25;;;22.50;99.90;;;;;;5079077;28;20048;-82
2023/10/04 10:38:49;;;;;;;0.20;0.20;;;22.50;99.90;;;;;;5078707;28;20028;-76
2023/10/04 10:41:49;;;;;;;0.10;0.10;;;22.40;99.90;;;;;;5060621;28;20067;-77
2023/10/04 10:44:17;;;;;;;3.13;2.85;;;22.50;99.90;;;;;;4998934;28;20030;-77
2023/10/04 10:47:02;;;;;;;5.05;2.38;;;22.70;99.90;;;;;;5015947;28;20087;-79
2023/10/04 10:49:44;;;;;;;1.00;1.00;;;22.90;99.90;;;;;;5015384;28;20111;-76
2023/10/04 10:52:23;;;;;;;0.70;0.70;;;23.10;99.90;;;;;;5014659;28;20033;-79
2023/10/04 10:54:53;;;;;;;0.22;0.22;;;23.10;99.90;;;;;;5014619;28;20035;-76
2023/10/04 10:57:20;;;;;;;0.20;0.20;;;23.00;99.90;;;;;;5014214;28;20378;-76
2023/10/04 10:59:48;;;;;;;0.50;0.50;;;22.90;99.90;;;;;;5014569;28;20665;-75
2023/10/04 11:02:14;;;;;;;0.10;0.10;;;23.10;99.90;;;;;;5015015;28;20030;-78
2023/10/04 11:04:40;;;;;;;1.73;1.13;;;23.50;99.90;;;;;;5015123;28;20032;-80
2023/10/04 11:07:06;;;;;;;0.10;0.10;;;25.40;99.90;;;;;;5014346;28;20025;-75
2023/10/04 11:09:38;;;;;;;0.95;0.95;;;23.70;99.90;;;;;;5014972;28;20035;-78
2023/10/04 11:12:07;;;;;;;0.15;0.15;;;24.20;99.90;;;;;;5014892;28;20237;-76
2023/10/04 11:14:34;;;;;;;0.20;0.20;;;24.70;99.90;;;;;;5014863;28;20117;-82
2023/10/04 11:17:01;;;;;;;0.88;0.88;;;24.90;99.90;;;;;;5014755;28;20021;-82
2023/10/04 11:19:27;;;;;;;0.35;0.35;;;25.10;99.90;;;;;;5015546;28;20684;-76
2023/10/04 11:21:53;;;;;;;0.10;0.10;;;25.10;99.90;;;;;;5068030;28;20033;-76
2023/10/04 11:24:20;;;;;;;0.13;0.13;;;25.10;99.90;;;;;;5080802;28;20024;-76
2023/10/04 11:26:47;;;;;;;1.25;0.68;;;25.10;99.90;;;;;;5081291;28;20437;-75
2023/10/04 11:29:13;;;;;;;0.45;0.45;;;25.00;99.90;;;;;;5081293;28;20116;-77
2023/10/04 11:31:49;;;;;;;0.65;0.57;;;24.80;99.90;;;;;;5078307;28;20081;-75
2023/10/04 11:34:15;;;;;;;0.25;0.25;;;24.70;99.90;;;;;;5058906;28;20472;-75
2023/10/04 11:36:41;;;;;;;0.10;0.10;;;24.40;99.90;;;;;;5058913;28;20013;-75
2023/10/04 11:39:18;;;;;;;0.10;0.10;;;24.60;99.90;;;;;;5059241;28;20043;-75
2023/10/04 11:41:46;;;;;;;0.15;0.15;;;24.70;99.90;;;;;;5058791;28;20113;-76
2023/10/04 11:44:12;;;;;;;0.10;0.10;;;25.20;99.90;;;;;;5077369;28;20028;-77
2023/10/04 11:47:00;;;;;;;3.35;3.10;;;24.70;99.70;;;;;;5077414;28;20028;-78
2023/10/04 11:49:28;;;;;;;0.32;0.32;;;24.60;99.90;;;;;;5077161;28;20189;-76
2023/10/04 11:51:59;;;;;;;0.10;0.10;;;24.70;99.60;;;;;;5077499;28;20227;-78
2023/10/04 11:54:41;;;;;;;0.85;0.85;;;24.80;99.50;;;;;;5077195;28;20040;-76
2023/10/04 11:57:08;;;;;;;0.10;0.10;;;24.80;99.20;;;;;;5076897;28;20485;-75
2023/10/04 11:59:34;;;;;;;0.60;0.60;;;24.90;99.10;;;;;;5058578;28;20051;-76
2023/10/04 12:02:01;;;;;;;0.22;0.20;;;25.00;98.70;;;;;;5076879;28;20570;-76
2023/10/04 12:04:32;;;;;;;0.25;0.25;;;25.00;99.10;;;;;;5077130;28;20020;-82
2023/10/04 12:07:00;;;;;;;0.10;0.10;;;25.30;98.70;;;;;;5077444;28;20019;-78
2023/10/04 12:09:27;;;;;;;0.52;0.52;;;25.30;98.40;;;;;;5079066;28;20262;-77
2023/10/04 12:11:56;;;;;;;0.50;0.50;;;25.40;98.20;;;;;;5080401;28;20520;-80
2023/10/04 12:14:22;;;;;;;1.15;1.10;;;25.40;97.80;;;;;;5081028;28;20074;-75
2023/10/04 12:16:49;;;;;;;0.38;0.38;;;25.50;98.10;;;;;;5081215;28;20516;-79
2023/10/04 12:19:15;;;;;;;0.13;0.08;;;25.40;97.70;;;;;;5081360;28;20040;-76
2023/10/04 12:21:41;;;;;;;1.35;0.98;;;25.70;98.10;;;;;;5080517;28;20012;-77
2023/10/04 12:24:09;;;;;;;0.10;0.10;;;25.80;97.40;;;;;;5080770;28;20016;-75
2023/10/04 12:26:35;;;;;;;0.03;0.03;;;25.90;97.30;;;;;;5081271;28;20384;-82
2023/10/04 12:29:02;;;;;;;0.38;0.38;;;26.20;97.20;;;;;;5081684;28;20088;-84
2023/10/04 12:31:28;;;;;;;0.00;0.00;;;26.40;96.70;;;;;;5081744;28;20028;-81
2023/10/04 12:33:55;;;;;;;0.10;0.10;;;26.50;96.40;;;;;;5080929;28;20023;-79
2023/10/04 12:36:25;;;;;;;1.10;1.10;;;29.40;97.50;;;;;;5062998;28;20452;-76
2023/10/04 12:38:51;;;;;;;0.13;0.13;;;26.30;96.10;;;;;;5082767;28;20240;-86
2023/10/04 12:41:18;;;;;;;0.40;0.40;;;27.00;95.40;;;;;;5082472;28;20307;-79
2023/10/04 12:43:44;;;;;;;0.63;0.57;;;27.20;95.40;;;;;;5064964;28;20430;-81
2023/10/04 12:46:10;;;;;;;1.45;1.13;;;27.30;95.50;;;;;;5082185;28;20020;-80
2023/10/04 12:48:39;;;;;;;0.30;0.30;;;27.60;95.30;;;;;;5080118;28;20020;-76
2023/10/04 12:51:05;;;;;;;0.25;0.25;;;28.00;94.60;;;;;;5080405;28;20027;-76
2023/10/04 12:53:31;;;;;;;0.63;0.63;;;28.20;94.00;;;;;;5079954;28;20055;-75
2023/10/04 12:55:57;;;;;;;0.00;0.00;;;28.30;93.70;;;;;;5080253;28;20020;-74
2023/10/04 12:58:23;;;;;;;0.30;0.30;;;28.50;93.80;;;;;;5079715;28;20231;-76
2023/10/04 13:00:50;;;;;;;0.52;0.30;;;28.50;92.90;;;;;;5079936;28;20067;-76